sensor_id;sensor_type;location;lat;lon;timestamp;P1;durP1;ratioP1;P2;durP2;ratioP2
20535;SDS011;10426;49.420;8.390;2023-10-31T00:00:27;0.45;;;0.40;;
20535;SDS011;10426;49.420;8.390;2023-10-31T00:02:54;0.60;;;0.40;;
20535;SDS011;10426;49.420;8.390;2023-10-31T00:05:22;0.40;;;0.40;;
20535;SDS011;10426;49.420;8.390;2023-10-31T00:07:48;0.45;;;0.40;;
20535;SDS011;10426;49.420;8.390;2023-10-31T00:10:15;0.30;;;0.30;;
20535;SDS011;10426;49.420;8.390;2023-10-31T00:12:42;0.50;;;0.50;;
20535;SDS011;10426;49.420;8.390;2023-10-31T00:15:08;0.80;;;0.40;;
20535;SDS011;10426;49.420;8.390;2023-10-31T00:17:35;0.40;;;0.40;;
20535;SDS011;10426;49.420;8.390;2023-10-31T00:20:02;0.77;;;0.50;;
20535;SDS011;10426;49.420;8.390;2023-10-31T00:22:30;0.60;;;0.60;;
20535;SDS011;10426;49.420;8.390;2023-10-31T00:24:56;1.63;;;0.70;;
20535;SDS011;10426;49.420;8.390;2023-10-31T00:27:23;0.45;;;0.45;;
20535;SDS011;10426;49.420;8.390;2023-10-31T00:29:49;0.50;;;0.50;;
20535;SDS011;10426;49.420;8.390;2023-10-31T00:32:16;0.43;;;0.43;;
20535;SDS011;10426;49.420;8.390;2023-10-31T00:34:43;0.50;;;0.50;;
20535;SDS011;10426;49.420;8.390;2023-10-31T00:37:08;0.40;;;0.40;;
20535;SDS011;10426;49.420;8.390;2023-10-31T00:39:36;0.70;;;0.40;;
20535;SDS011;10426;49.420;8.390;2023-10-31T00:42:03;1.10;;;0.40;;
20535;SDS011;10426;49.420;8.390;2023-10-31T00:44:29;1.10;;;0.50;;
20535;SDS011;10426;49.420;8.390;2023-10-31T00:46:56;0.50;;;0.50;;
20535;SDS011;10426;49.420;8.390;2023-10-31T00:49:22;1.00;;;0.47;;
20535;SDS011;10426;49.420;8.390;2023-10-31T00:51:49;1.77;;;0.73;;
20535;SDS011;10426;49.420;8.390;2023-10-31T00:54:16;0.40;;;0.40;;
20535;SDS011;10426;49.420;8.390;2023-10-31T00:56:44;0.50;;;0.50;;
20535;SDS011;10426;49.420;8.390;2023-10-31T00:59:10;0.80;;;0.70;;
20535;SDS011;10426;49.420;8.390;2023-10-31T01:01:37;0.50;;;0.50;;
20535;SDS011;10426;49.420;8.390;2023-10-31T01:04:04;2.10;;;0.50;;
20535;SDS011;10426;49.420;8.390;2023-10-31T01:06:30;0.87;;;0.53;;
20535;SDS011;10426;49.420;8.390;2023-10-31T01:08:57;1.08;;;0.57;;
20535;SDS011;10426;49.420;8.390;2023-10-31T01:11:24;0.95;;;0.40;;
20535;SDS011;10426;49.420;8.390;2023-10-31T01:13:52;0.40;;;0.40;;
20535;SDS011;10426;49.420;8.390;2023-10-31T01:16:18;1.10;;;0.45;;
20535;SDS011;10426;49.420;8.390;2023-10-31T01:18:45;0.40;;;0.40;;
20535;SDS011;10426;49.420;8.390;2023-10-31T01:21:11;1.00;;;0.40;;
20535;SDS011;10426;49.420;8.390;2023-10-31T01:23:38;0.50;;;0.40;;
20535;SDS011;10426;49.420;8.390;2023-10-31T01:26:05;0.95;;;0.65;;
20535;SDS011;10426;49.420;8.390;2023-10-31T01:28:32;1.30;;;0.50;;
20535;SDS011;10426;49.420;8.390;2023-10-31T01:30:59;0.70;;;0.40;;
20535;SDS011;10426;49.420;8.390;2023-10-31T01:33:26;0.63;;;0.50;;
20535;SDS011;10426;49.420;8.390;2023-10-31T01:35:53;1.38;;;0.57;;
20535;SDS011;10426;49.420;8.390;2023-10-31T01:38:19;0.47;;;0.47;;
20535;SDS011;10426;49.420;8.390;2023-10-31T01:40:48;0.90;;;0.55;;
20535;SDS011;10426;49.420;8.390;2023-10-31T01:43:28;0.52;;;0.52;;
20535;SDS011;10426;49.420;8.390;2023-10-31T01:45:55;0.75;;;0.43;;
20535;SDS011;10426;49.420;8.390;2023-10-31T01:48:23;0.50;;;0.50;;
20535;SDS011;10426;49.420;8.390;2023-10-31T01:50:50;0.40;;;0.40;;
20535;SDS011;10426;49.420;8.390;2023-10-31T01:53:16;0.40;;;0.40;;
20535;SDS011;10426;49.420;8.390;2023-10-31T01:55:43;0.50;;;0.50;;
20535;SDS011;10426;49.420;8.390;2023-10-31T01:58:10;1.20;;;0.80;;
20535;SDS011;10426;49.420;8.390;2023-10-31T02:00:39;1.23;;;0.88;;
20535;SDS011;10426;49.420;8.390;2023-10-31T02:03:06;1.30;;;0.50;;
20535;SDS011;10426;49.420;8.390;2023-10-31T02:05:34;2.42;;;0.50;;
20535;SDS011;10426;49.420;8.390;2023-10-31T02:08:01;0.70;;;0.70;;
20535;SDS011;10426;49.420;8.390;2023-10-31T02:10:28;0.50;;;0.50;;
20535;SDS011;10426;49.420;8.390;2023-10-31T02:12:54;0.63;;;0.50;;
20535;SDS011;10426;49.420;8.390;2023-10-31T02:15:21;0.50;;;0.50;;
20535;SDS011;10426;49.420;8.390;2023-10-31T02:17:48;0.98;;;0.57;;
20535;SDS011;10426;49.420;8.390;2023-10-31T02:20:14;0.60;;;0.50;;
20535;SDS011;10426;49.420;8.390;2023-10-31T02:22:42;0.43;;;0.43;;
20535;SDS011;10426;49.420;8.390;2023-10-31T02:25:18;0.47;;;0.47;;
20535;SDS011;10426;49.420;8.390;2023-10-31T02:27:45;0.80;;;0.70;;
20535;SDS011;10426;49.420;8.390;2023-10-31T02:30:12;0.50;;;0.50;;
20535;SDS011;10426;49.420;8.390;2023-10-31T02:32:39;0.50;;;0.50;;
20535;SDS011;10426;49.420;8.390;2023-10-31T02:35:06;1.20;;;0.50;;
20535;SDS011;10426;49.420;8.390;2023-10-31T02:37:33;0.70;;;0.50;;
20535;SDS011;10426;49.420;8.390;2023-10-31T02:40:02;0.50;;;0.50;;
20535;SDS011;10426;49.420;8.390;2023-10-31T02:42:28;0.50;;;0.50;;
20535;SDS011;10426;49.420;8.390;2023-10-31T02:44:56;3.08;;;0.50;;
20535;SDS011;10426;49.420;8.390;2023-10-31T02:47:22;0.52;;;0.52;;
20535;SDS011;10426;49.420;8.390;2023-10-31T02:49:49;0.55;;;0.55;;
20535;SDS011;10426;49.420;8.390;2023-10-31T02:52:15;1.75;;;1.00;;
20535;SDS011;10426;49.420;8.390;2023-10-31T02:54:42;4.67;;;1.80;;
20535;SDS011;10426;49.420;8.390;2023-10-31T02:57:10;4.75;;;1.70;;
20535;SDS011;10426;49.420;8.390;2023-10-31T02:59:37;3.67;;;1.80;;
20535;SDS011;10426;49.420;8.390;2023-10-31T03:02:03;3.03;;;1.70;;
20535;SDS011;10426;49.420;8.390;2023-10-31T03:04:30;1.67;;;1.30;;
20535;SDS011;10426;49.420;8.390;2023-10-31T03:06:57;1.50;;;1.20;;
20535;SDS011;10426;49.420;8.390;2023-10-31T03:09:24;1.40;;;0.80;;
20535;SDS011;10426;49.420;8.390;2023-10-31T03:11:50;2.63;;;0.80;;
20535;SDS011;10426;49.420;8.390;2023-10-31T03:14:18;0.60;;;0.60;;
20535;SDS011;10426;49.420;8.390;2023-10-31T03:16:44;0.95;;;0.70;;
20535;SDS011;10426;49.420;8.390;2023-10-31T03:19:11;1.00;;;0.57;;
20535;SDS011;10426;49.420;8.390;2023-10-31T03:21:37;0.70;;;0.70;;
20535;SDS011;10426;49.420;8.390;2023-10-31T03:24:05;1.13;;;0.57;;
20535;SDS011;10426;49.420;8.390;2023-10-31T03:26:31;2.63;;;0.80;;
20535;SDS011;10426;49.420;8.390;2023-10-31T03:28:58;0.90;;;0.60;;
20535;SDS011;10426;49.420;8.390;2023-10-31T03:31:26;0.85;;;0.63;;
20535;SDS011;10426;49.420;8.390;2023-10-31T03:33:53;0.65;;;0.65;;
20535;SDS011;10426;49.420;8.390;2023-10-31T03:36:19;0.70;;;0.60;;
20535;SDS011;10426;49.420;8.390;2023-10-31T03:38:46;1.25;;;0.50;;
20535;SDS011;10426;49.420;8.390;2023-10-31T03:41:13;0.65;;;0.60;;
20535;SDS011;10426;49.420;8.390;2023-10-31T03:43:38;1.30;;;0.70;;
20535;SDS011;10426;49.420;8.390;2023-10-31T03:46:05;2.10;;;0.60;;
20535;SDS011;10426;49.420;8.390;2023-10-31T03:48:33;1.15;;;0.70;;
20535;SDS011;10426;49.420;8.390;2023-10-31T03:50:59;0.82;;;0.70;;
20535;SDS011;10426;49.420;8.390;2023-10-31T03:53:26;0.85;;;0.60;;
20535;SDS011;10426;49.420;8.390;2023-10-31T03:55:53;2.00;;;0.57;;
20535;SDS011;10426;49.420;8.390;2023-10-31T03:58:19;0.73;;;0.50;;
20535;SDS011;10426;49.420;8.390;2023-10-31T04:00:46;0.60;;;0.55;;
20535;SDS011;10426;49.420;8.390;2023-10-31T04:03:12;1.10;;;0.80;;
20535;SDS011;10426;49.420;8.390;2023-10-31T04:05:40;0.70;;;0.70;;
20535;SDS011;10426;49.420;8.390;2023-10-31T04:08:07;2.40;;;0.60;;
20535;SDS011;10426;49.420;8.390;2023-10-31T04:10:34;1.17;;;0.90;;
20535;SDS011;10426;49.420;8.390;2023-10-31T04:13:00;0.85;;;0.75;;
20535;SDS011;10426;49.420;8.390;2023-10-31T04:15:27;1.00;;;0.90;;
20535;SDS011;10426;49.420;8.390;2023-10-31T04:17:53;1.50;;;0.75;;
20535;SDS011;10426;49.420;8.390;2023-10-31T04:20:20;1.60;;;0.60;;
20535;SDS011;10426;49.420;8.390;2023-10-31T04:22:48;1.17;;;0.80;;
20535;SDS011;10426;49.420;8.390;2023-10-31T04:25:15;0.70;;;0.70;;
20535;SDS011;10426;49.420;8.390;2023-10-31T04:27:41;1.00;;;0.90;;
20535;SDS011;10426;49.420;8.390;2023-10-31T04:30:08;1.10;;;0.60;;
20535;SDS011;10426;49.420;8.390;2023-10-31T04:32:35;1.05;;;0.60;;
20535;SDS011;10426;49.420;8.390;2023-10-31T04:35:02;3.20;;;0.70;;
20535;SDS011;10426;49.420;8.390;2023-10-31T04:37:28;0.60;;;0.60;;
20535;SDS011;10426;49.420;8.390;2023-10-31T04:39:56;0.70;;;0.70;;
20535;SDS011;10426;49.420;8.390;2023-10-31T04:42:23;0.70;;;0.70;;
20535;SDS011;10426;49.420;8.390;2023-10-31T04:44:49;0.95;;;0.60;;
20535;SDS011;10426;49.420;8.390;2023-10-31T04:47:16;0.50;;;0.50;;
20535;SDS011;10426;49.420;8.390;2023-10-31T04:49:43;1.15;;;0.55;;
20535;SDS011;10426;49.420;8.390;2023-10-31T04:52:09;0.70;;;0.53;;
20535;SDS011;10426;49.420;8.390;2023-10-31T04:54:37;5.95;;;1.88;;
20535;SDS011;10426;49.420;8.390;2023-10-31T04:57:05;3.42;;;1.20;;
20535;SDS011;10426;49.420;8.390;2023-10-31T04:59:32;0.70;;;0.70;;
20535;SDS011;10426;49.420;8.390;2023-10-31T05:01:58;3.60;;;1.27;;
20535;SDS011;10426;49.420;8.390;2023-10-31T05:04:25;1.73;;;0.80;;
20535;SDS011;10426;49.420;8.390;2023-10-31T05:06:52;1.10;;;0.63;;
20535;SDS011;10426;49.420;8.390;2023-10-31T05:09:19;0.70;;;0.50;;
20535;SDS011;10426;49.420;8.390;2023-10-31T05:11:45;1.50;;;0.60;;
20535;SDS011;10426;49.420;8.390;2023-10-31T05:14:13;2.45;;;0.57;;
20535;SDS011;10426;49.420;8.390;2023-10-31T05:16:39;1.60;;;0.60;;
20535;SDS011;10426;49.420;8.390;2023-10-31T05:19:07;0.70;;;0.70;;
20535;SDS011;10426;49.420;8.390;2023-10-31T05:21:33;0.75;;;0.75;;
20535;SDS011;10426;49.420;8.390;2023-10-31T05:24:00;0.60;;;0.60;;
20535;SDS011;10426;49.420;8.390;2023-10-31T05:26:27;0.93;;;0.60;;
20535;SDS011;10426;49.420;8.390;2023-10-31T05:28:54;1.30;;;0.70;;
20535;SDS011;10426;49.420;8.390;2023-10-31T05:31:22;1.10;;;0.80;;
20535;SDS011;10426;49.420;8.390;2023-10-31T05:33:49;1.92;;;0.73;;
20535;SDS011;10426;49.420;8.390;2023-10-31T05:36:19;2.50;;;0.73;;
20535;SDS011;10426;49.420;8.390;2023-10-31T05:38:46;1.20;;;0.60;;
20535;SDS011;10426;49.420;8.390;2023-10-31T05:41:13;2.00;;;0.63;;
20535;SDS011;10426;49.420;8.390;2023-10-31T05:43:40;3.15;;;0.98;;
20535;SDS011;10426;49.420;8.390;2023-10-31T05:46:07;1.00;;;0.82;;
20535;SDS011;10426;49.420;8.390;2023-10-31T05:48:38;2.20;;;0.77;;
20535;SDS011;10426;49.420;8.390;2023-10-31T05:51:04;0.80;;;0.80;;
20535;SDS011;10426;49.420;8.390;2023-10-31T05:53:31;0.90;;;0.60;;
20535;SDS011;10426;49.420;8.390;2023-10-31T05:55:59;1.58;;;0.70;;
20535;SDS011;10426;49.420;8.390;2023-10-31T05:58:25;1.48;;;0.60;;
20535;SDS011;10426;49.420;8.390;2023-10-31T06:00:52;1.92;;;0.90;;
20535;SDS011;10426;49.420;8.390;2023-10-31T06:03:19;3.08;;;0.80;;
20535;SDS011;10426;49.420;8.390;2023-10-31T06:05:47;1.30;;;0.80;;
20535;SDS011;10426;49.420;8.390;2023-10-31T06:08:14;1.95;;;0.80;;
20535;SDS011;10426;49.420;8.390;2023-10-31T06:10:40;2.35;;;0.90;;
20535;SDS011;10426;49.420;8.390;2023-10-31T06:13:07;0.70;;;0.70;;
20535;SDS011;10426;49.420;8.390;2023-10-31T06:15:33;2.07;;;0.77;;
20535;SDS011;10426;49.420;8.390;2023-10-31T06:18:00;0.77;;;0.77;;
20535;SDS011;10426;49.420;8.390;2023-10-31T06:20:28;0.90;;;0.90;;
20535;SDS011;10426;49.420;8.390;2023-10-31T06:22:56;2.38;;;0.90;;
20535;SDS011;10426;49.420;8.390;2023-10-31T06:25:24;1.13;;;1.00;;
20535;SDS011;10426;49.420;8.390;2023-10-31T06:27:51;2.42;;;1.15;;
20535;SDS011;10426;49.420;8.390;2023-10-31T06:30:17;1.00;;;0.82;;
20535;SDS011;10426;49.420;8.390;2023-10-31T06:32:44;1.00;;;0.90;;
20535;SDS011;10426;49.420;8.390;2023-10-31T06:35:10;1.27;;;0.82;;
20535;SDS011;10426;49.420;8.390;2023-10-31T06:37:37;1.52;;;1.00;;
20535;SDS011;10426;49.420;8.390;2023-10-31T06:40:06;0.93;;;0.70;;
20535;SDS011;10426;49.420;8.390;2023-10-31T06:42:33;1.90;;;0.98;;
20535;SDS011;10426;49.420;8.390;2023-10-31T06:44:59;2.22;;;1.00;;
20535;SDS011;10426;49.420;8.390;2023-10-31T06:47:26;2.42;;;1.33;;
20535;SDS011;10426;49.420;8.390;2023-10-31T06:49:52;1.38;;;0.95;;
20535;SDS011;10426;49.420;8.390;2023-10-31T06:52:19;1.23;;;1.10;;
20535;SDS011;10426;49.420;8.390;2023-10-31T06:54:46;1.50;;;1.10;;
20535;SDS011;10426;49.420;8.390;2023-10-31T06:57:14;2.88;;;1.10;;
20535;SDS011;10426;49.420;8.390;2023-10-31T06:59:41;1.17;;;1.00;;
20535;SDS011;10426;49.420;8.390;2023-10-31T07:02:08;0.73;;;0.70;;
20535;SDS011;10426;49.420;8.390;2023-10-31T07:04:35;1.73;;;0.82;;
20535;SDS011;10426;49.420;8.390;2023-10-31T07:07:01;1.38;;;0.65;;
20535;SDS011;10426;49.420;8.390;2023-10-31T07:09:28;0.95;;;0.95;;
20535;SDS011;10426;49.420;8.390;2023-10-31T07:11:55;1.70;;;0.80;;
20535;SDS011;10426;49.420;8.390;2023-10-31T07:14:23;1.55;;;0.90;;
20535;SDS011;10426;49.420;8.390;2023-10-31T07:16:49;0.90;;;0.90;;
20535;SDS011;10426;49.420;8.390;2023-10-31T07:19:16;1.00;;;0.90;;
20535;SDS011;10426;49.420;8.390;2023-10-31T07:21:43;1.17;;;0.88;;
20535;SDS011;10426;49.420;8.390;2023-10-31T07:24:09;0.70;;;0.70;;
20535;SDS011;10426;49.420;8.390;2023-10-31T07:26:36;3.30;;;0.90;;
20535;SDS011;10426;49.420;8.390;2023-10-31T07:29:02;1.55;;;0.73;;
20535;SDS011;10426;49.420;8.390;2023-10-31T07:31:31;2.42;;;1.27;;
20535;SDS011;10426;49.420;8.390;2023-10-31T07:33:57;4.00;;;1.70;;
20535;SDS011;10426;49.420;8.390;2023-10-31T07:36:24;2.50;;;1.35;;
20535;SDS011;10426;49.420;8.390;2023-10-31T07:38:50;1.50;;;1.07;;
20535;SDS011;10426;49.420;8.390;2023-10-31T07:41:17;3.00;;;0.80;;
20535;SDS011;10426;49.420;8.390;2023-10-31T07:43:43;1.90;;;0.90;;
20535;SDS011;10426;49.420;8.390;2023-10-31T07:46:10;1.08;;;0.77;;
20535;SDS011;10426;49.420;8.390;2023-10-31T07:48:38;2.08;;;0.98;;
20535;SDS011;10426;49.420;8.390;2023-10-31T07:51:05;1.40;;;0.75;;
20535;SDS011;10426;49.420;8.390;2023-10-31T07:53:31;0.88;;;0.70;;
20535;SDS011;10426;49.420;8.390;2023-10-31T07:55:58;0.80;;;0.80;;
20535;SDS011;10426;49.420;8.390;2023-10-31T07:58:24;1.20;;;0.85;;
20535;SDS011;10426;49.420;8.390;2023-10-31T08:00:51;2.37;;;1.20;;
20535;SDS011;10426;49.420;8.390;2023-10-31T08:03:18;1.45;;;0.85;;
20535;SDS011;10426;49.420;8.390;2023-10-31T08:05:46;2.00;;;1.00;;
20535;SDS011;10426;49.420;8.390;2023-10-31T08:08:12;1.42;;;0.90;;
20535;SDS011;10426;49.420;8.390;2023-10-31T08:10:39;1.98;;;1.13;;
20535;SDS011;10426;49.420;8.390;2023-10-31T08:13:05;1.48;;;1.00;;
20535;SDS011;10426;49.420;8.390;2023-10-31T08:15:32;1.30;;;0.80;;
20535;SDS011;10426;49.420;8.390;2023-10-31T08:17:59;2.47;;;0.90;;
20535;SDS011;10426;49.420;8.390;2023-10-31T08:20:25;1.45;;;0.90;;
20535;SDS011;10426;49.420;8.390;2023-10-31T08:22:53;1.10;;;0.80;;
20535;SDS011;10426;49.420;8.390;2023-10-31T08:25:20;1.45;;;1.00;;
20535;SDS011;10426;49.420;8.390;2023-10-31T08:27:48;1.20;;;0.85;;
20535;SDS011;10426;49.420;8.390;2023-10-31T08:30:14;3.97;;;1.15;;
20535;SDS011;10426;49.420;8.390;2023-10-31T08:32:41;2.43;;;1.20;;
20535;SDS011;10426;49.420;8.390;2023-10-31T08:35:08;6.43;;;1.48;;
20535;SDS011;10426;49.420;8.390;2023-10-31T08:37:34;3.70;;;1.33;;
20535;SDS011;10426;49.420;8.390;2023-10-31T08:40:03;7.57;;;1.05;;
20535;SDS011;10426;49.420;8.390;2023-10-31T08:42:30;2.70;;;1.00;;
20535;SDS011;10426;49.420;8.390;2023-10-31T08:44:56;2.90;;;1.90;;
20535;SDS011;10426;49.420;8.390;2023-10-31T08:47:23;1.87;;;1.07;;
20535;SDS011;10426;49.420;8.390;2023-10-31T08:49:50;0.80;;;0.80;;
20535;SDS011;10426;49.420;8.390;2023-10-31T08:52:17;1.13;;;1.10;;
20535;SDS011;10426;49.420;8.390;2023-10-31T08:54:44;1.38;;;0.90;;
20535;SDS011;10426;49.420;8.390;2023-10-31T08:57:12;2.42;;;0.90;;
20535;SDS011;10426;49.420;8.390;2023-10-31T08:59:38;0.80;;;0.80;;
20535;SDS011;10426;49.420;8.390;2023-10-31T09:02:06;2.03;;;1.03;;
20535;SDS011;10426;49.420;8.390;2023-10-31T09:04:32;2.30;;;0.93;;
20535;SDS011;10426;49.420;8.390;2023-10-31T09:07:00;2.90;;;0.93;;
20535;SDS011;10426;49.420;8.390;2023-10-31T09:09:27;4.30;;;1.20;;
20535;SDS011;10426;49.420;8.390;2023-10-31T09:11:54;2.20;;;1.15;;
20535;SDS011;10426;49.420;8.390;2023-10-31T09:14:21;1.92;;;0.90;;
20535;SDS011;10426;49.420;8.390;2023-10-31T09:16:48;3.42;;;1.10;;
20535;SDS011;10426;49.420;8.390;2023-10-31T09:19:15;2.63;;;1.02;;
20535;SDS011;10426;49.420;8.390;2023-10-31T09:21:41;3.00;;;1.20;;
20535;SDS011;10426;49.420;8.390;2023-10-31T09:24:08;1.23;;;0.90;;
20535;SDS011;10426;49.420;8.390;2023-10-31T09:26:35;2.55;;;1.00;;
20535;SDS011;10426;49.420;8.390;2023-10-31T09:29:03;2.63;;;0.80;;
20535;SDS011;10426;49.420;8.390;2023-10-31T09:31:31;3.97;;;1.13;;
20535;SDS011;10426;49.420;8.390;2023-10-31T09:33:57;3.30;;;1.00;;
20535;SDS011;10426;49.420;8.390;2023-10-31T09:36:24;2.67;;;1.00;;
20535;SDS011;10426;49.420;8.390;2023-10-31T09:38:51;1.80;;;1.08;;
20535;SDS011;10426;49.420;8.390;2023-10-31T09:41:18;1.08;;;1.00;;
20535;SDS011;10426;49.420;8.390;2023-10-31T09:43:44;2.72;;;1.20;;
20535;SDS011;10426;49.420;8.390;2023-10-31T09:46:11;3.80;;;1.00;;
20535;SDS011;10426;49.420;8.390;2023-10-31T09:48:39;3.63;;;1.08;;
20535;SDS011;10426;49.420;8.390;2023-10-31T09:51:06;3.23;;;1.20;;
20535;SDS011;10426;49.420;8.390;2023-10-31T09:53:33;1.88;;;1.20;;
20535;SDS011;10426;49.420;8.390;2023-10-31T09:56:00;3.45;;;1.30;;
20535;SDS011;10426;49.420;8.390;2023-10-31T09:58:27;3.35;;;1.05;;
20535;SDS011;10426;49.420;8.390;2023-10-31T10:00:53;3.10;;;1.05;;
20535;SDS011;10426;49.420;8.390;2023-10-31T10:03:20;2.20;;;1.27;;
20535;SDS011;10426;49.420;8.390;2023-10-31T10:05:49;3.00;;;1.00;;
20535;SDS011;10426;49.420;8.390;2023-10-31T10:08:16;2.38;;;1.10;;
20535;SDS011;10426;49.420;8.390;2023-10-31T10:10:42;3.40;;;1.20;;
20535;SDS011;10426;49.420;8.390;2023-10-31T10:13:09;3.17;;;1.20;;
20535;SDS011;10426;49.420;8.390;2023-10-31T10:15:44;2.42;;;1.13;;
20535;SDS011;10426;49.420;8.390;2023-10-31T10:18:17;3.28;;;1.10;;
20535;SDS011;10426;49.420;8.390;2023-10-31T10:20:55;3.25;;;1.20;;
20535;SDS011;10426;49.420;8.390;2023-10-31T10:23:22;2.57;;;1.17;;
20535;SDS011;10426;49.420;8.390;2023-10-31T10:25:49;3.17;;;1.50;;
20535;SDS011;10426;49.420;8.390;2023-10-31T10:28:16;1.90;;;1.08;;
20535;SDS011;10426;49.420;8.390;2023-10-31T10:30:44;2.55;;;1.30;;
20535;SDS011;10426;49.420;8.390;2023-10-31T10:33:11;1.80;;;1.23;;
20535;SDS011;10426;49.420;8.390;2023-10-31T10:35:38;3.28;;;1.25;;
20535;SDS011;10426;49.420;8.390;2023-10-31T10:38:06;3.28;;;1.35;;
20535;SDS011;10426;49.420;8.390;2023-10-31T10:40:35;3.15;;;1.33;;
20535;SDS011;10426;49.420;8.390;2023-10-31T10:43:03;6.45;;;1.30;;
20535;SDS011;10426;49.420;8.390;2023-10-31T10:45:34;2.90;;;1.27;;
20535;SDS011;10426;49.420;8.390;2023-10-31T10:48:01;3.05;;;1.20;;
20535;SDS011;10426;49.420;8.390;2023-10-31T10:50:31;2.20;;;1.30;;
20535;SDS011;10426;49.420;8.390;2023-10-31T10:53:04;3.38;;;0.90;;
20535;SDS011;10426;49.420;8.390;2023-10-31T10:55:37;2.93;;;1.13;;
20535;SDS011;10426;49.420;8.390;2023-10-31T10:58:05;2.67;;;1.00;;
20535;SDS011;10426;49.420;8.390;2023-10-31T11:00:33;2.20;;;0.90;;
20535;SDS011;10426;49.420;8.390;2023-10-31T11:02:59;1.33;;;0.90;;
20535;SDS011;10426;49.420;8.390;2023-10-31T11:05:27;3.10;;;0.90;;
20535;SDS011;10426;49.420;8.390;2023-10-31T11:07:54;1.30;;;0.80;;
20535;SDS011;10426;49.420;8.390;2023-10-31T11:10:23;1.73;;;0.90;;
20535;SDS011;10426;49.420;8.390;2023-10-31T11:12:51;2.80;;;1.10;;
20535;SDS011;10426;49.420;8.390;2023-10-31T11:15:19;1.65;;;1.00;;
20535;SDS011;10426;49.420;8.390;2023-10-31T11:17:46;2.72;;;1.60;;
20535;SDS011;10426;49.420;8.390;2023-10-31T11:20:13;2.75;;;1.50;;
20535;SDS011;10426;49.420;8.390;2023-10-31T11:22:41;1.13;;;0.88;;
20535;SDS011;10426;49.420;8.390;2023-10-31T11:25:09;4.93;;;1.20;;
20535;SDS011;10426;49.420;8.390;2023-10-31T11:27:36;2.30;;;1.33;;
20535;SDS011;10426;49.420;8.390;2023-10-31T11:30:06;2.20;;;1.10;;
20535;SDS011;10426;49.420;8.390;2023-10-31T11:32:33;1.40;;;0.80;;
20535;SDS011;10426;49.420;8.390;2023-10-31T11:35:00;2.17;;;1.10;;
20535;SDS011;10426;49.420;8.390;2023-10-31T11:37:27;1.05;;;0.70;;
20535;SDS011;10426;49.420;8.390;2023-10-31T11:40:16;3.25;;;1.02;;
20535;SDS011;10426;49.420;8.390;2023-10-31T11:42:43;2.58;;;1.33;;
20535;SDS011;10426;49.420;8.390;2023-10-31T11:45:11;3.00;;;1.20;;
20535;SDS011;10426;49.420;8.390;2023-10-31T11:47:47;3.25;;;0.95;;
20535;SDS011;10426;49.420;8.390;2023-10-31T11:50:14;3.60;;;1.30;;
20535;SDS011;10426;49.420;8.390;2023-10-31T11:52:41;3.83;;;1.00;;
20535;SDS011;10426;49.420;8.390;2023-10-31T11:55:08;2.58;;;1.00;;
20535;SDS011;10426;49.420;8.390;2023-10-31T11:57:35;1.33;;;0.90;;
20535;SDS011;10426;49.420;8.390;2023-10-31T12:00:02;1.23;;;1.05;;
20535;SDS011;10426;49.420;8.390;2023-10-31T12:02:30;3.53;;;1.42;;
20535;SDS011;10426;49.420;8.390;2023-10-31T12:05:06;1.17;;;1.00;;
20535;SDS011;10426;49.420;8.390;2023-10-31T12:07:40;1.45;;;0.98;;
20535;SDS011;10426;49.420;8.390;2023-10-31T12:10:07;2.47;;;0.80;;
20535;SDS011;10426;49.420;8.390;2023-10-31T12:12:34;3.17;;;1.13;;
20535;SDS011;10426;49.420;8.390;2023-10-31T12:15:04;2.53;;;1.10;;
20535;SDS011;10426;49.420;8.390;2023-10-31T12:17:32;2.75;;;1.20;;
20535;SDS011;10426;49.420;8.390;2023-10-31T12:20:02;0.95;;;0.80;;
20535;SDS011;10426;49.420;8.390;2023-10-31T12:22:29;1.77;;;0.82;;
20535;SDS011;10426;49.420;8.390;2023-10-31T12:24:59;3.80;;;1.10;;
20535;SDS011;10426;49.420;8.390;2023-10-31T12:27:39;3.10;;;0.80;;
20535;SDS011;10426;49.420;8.390;2023-10-31T12:30:08;2.45;;;0.88;;
20535;SDS011;10426;49.420;8.390;2023-10-31T12:32:36;4.40;;;1.00;;
20535;SDS011;10426;49.420;8.390;2023-10-31T12:35:03;1.88;;;1.00;;
20535;SDS011;10426;49.420;8.390;2023-10-31T12:37:30;2.30;;;0.87;;
20535;SDS011;10426;49.420;8.390;2023-10-31T12:39:56;1.42;;;0.77;;
20535;SDS011;10426;49.420;8.390;2023-10-31T12:42:24;2.20;;;1.00;;
20535;SDS011;10426;49.420;8.390;2023-10-31T12:44:54;1.27;;;0.80;;
20535;SDS011;10426;49.420;8.390;2023-10-31T12:47:22;1.58;;;0.80;;
20535;SDS011;10426;49.420;8.390;2023-10-31T12:55:14;1.40;;;0.80;;
20535;SDS011;10426;49.420;8.390;2023-10-31T12:57:41;0.82;;;0.70;;
20535;SDS011;10426;49.420;8.390;2023-10-31T13:00:08;2.17;;;0.80;;
20535;SDS011;10426;49.420;8.390;2023-10-31T13:02:38;2.00;;;0.85;;
20535;SDS011;10426;49.420;8.390;2023-10-31T13:05:08;5.07;;;0.83;;
20535;SDS011;10426;49.420;8.390;2023-10-31T13:07:34;1.13;;;0.95;;
20535;SDS011;10426;49.420;8.390;2023-10-31T13:10:01;1.35;;;0.70;;
20535;SDS011;10426;49.420;8.390;2023-10-31T13:12:31;0.95;;;0.80;;
20535;SDS011;10426;49.420;8.390;2023-10-31T13:14:57;1.95;;;0.82;;
20535;SDS011;10426;49.420;8.390;2023-10-31T13:17:24;2.20;;;0.87;;
20535;SDS011;10426;49.420;8.390;2023-10-31T13:19:50;1.50;;;1.10;;
20535;SDS011;10426;49.420;8.390;2023-10-31T13:22:17;2.60;;;0.90;;
20535;SDS011;10426;49.420;8.390;2023-10-31T13:24:44;1.55;;;0.90;;
20535;SDS011;10426;49.420;8.390;2023-10-31T13:27:11;2.05;;;0.85;;
20535;SDS011;10426;49.420;8.390;2023-10-31T13:29:42;3.08;;;0.88;;
20535;SDS011;10426;49.420;8.390;2023-10-31T13:32:08;2.33;;;0.90;;
20535;SDS011;10426;49.420;8.390;2023-10-31T13:34:35;1.08;;;0.98;;
20535;SDS011;10426;49.420;8.390;2023-10-31T13:37:02;1.50;;;0.80;;
20535;SDS011;10426;49.420;8.390;2023-10-31T13:39:29;1.70;;;0.90;;
20535;SDS011;10426;49.420;8.390;2023-10-31T13:41:55;0.75;;;0.75;;
20535;SDS011;10426;49.420;8.390;2023-10-31T13:44:22;1.52;;;0.90;;
20535;SDS011;10426;49.420;8.390;2023-10-31T13:46:50;3.95;;;1.00;;
20535;SDS011;10426;49.420;8.390;2023-10-31T13:49:17;1.15;;;0.70;;
20535;SDS011;10426;49.420;8.390;2023-10-31T13:51:43;0.77;;;0.77;;
20535;SDS011;10426;49.420;8.390;2023-10-31T13:54:10;0.88;;;0.80;;
20535;SDS011;10426;49.420;8.390;2023-10-31T13:56:36;2.08;;;0.80;;
20535;SDS011;10426;49.420;8.390;2023-10-31T13:59:03;1.98;;;1.05;;
20535;SDS011;10426;49.420;8.390;2023-10-31T14:01:30;1.58;;;1.05;;
20535;SDS011;10426;49.420;8.390;2023-10-31T14:03:58;2.53;;;1.15;;
20535;SDS011;10426;49.420;8.390;2023-10-31T14:06:24;1.75;;;0.90;;
20535;SDS011;10426;49.420;8.390;2023-10-31T14:08:55;3.50;;;1.10;;
20535;SDS011;10426;49.420;8.390;2023-10-31T14:11:22;2.38;;;1.10;;
20535;SDS011;10426;49.420;8.390;2023-10-31T14:13:49;1.00;;;0.90;;
20535;SDS011;10426;49.420;8.390;2023-10-31T14:16:17;1.27;;;0.90;;
20535;SDS011;10426;49.420;8.390;2023-10-31T14:18:44;1.00;;;0.90;;
20535;SDS011;10426;49.420;8.390;2023-10-31T14:21:12;3.08;;;0.90;;
20535;SDS011;10426;49.420;8.390;2023-10-31T14:23:39;2.27;;;0.97;;
20535;SDS011;10426;49.420;8.390;2023-10-31T14:26:06;1.35;;;0.70;;
20535;SDS011;10426;49.420;8.390;2023-10-31T14:28:32;1.07;;;0.80;;
20535;SDS011;10426;49.420;8.390;2023-10-31T14:30:59;1.23;;;1.02;;
20535;SDS011;10426;49.420;8.390;2023-10-31T14:33:26;1.05;;;0.90;;
20535;SDS011;10426;49.420;8.390;2023-10-31T14:35:55;1.48;;;0.90;;
20535;SDS011;10426;49.420;8.390;2023-10-31T14:38:23;1.50;;;0.70;;
20535;SDS011;10426;49.420;8.390;2023-10-31T14:40:49;3.17;;;0.90;;
20535;SDS011;10426;49.420;8.390;2023-10-31T14:43:16;2.10;;;0.98;;
20535;SDS011;10426;49.420;8.390;2023-10-31T14:45:43;1.95;;;0.90;;
20535;SDS011;10426;49.420;8.390;2023-10-31T14:48:10;0.80;;;0.80;;
20535;SDS011;10426;49.420;8.390;2023-10-31T14:50:37;1.30;;;0.90;;
20535;SDS011;10426;49.420;8.390;2023-10-31T14:53:04;2.25;;;1.02;;